SHMÚ 65 rokov / 1954-2019 - Ďakujeme našim partnerom


SHMÚ vydal meteorologické výstrahy na PoľadovicaVietor na horách Zobraziť výstrahy

METAR

Letisková meteorologická správa METAR

Meteorologické informácie z ďalších profesionálnych meteorologických staníc SHMÚ zobrazené v tvare zodpovedajúcom pravidlám kódovania správ METAR sú uvedené v položke „METSYN

Informácie o správe METAR

07.12.2019 - 17:00 UTC

METAR LZIB 071700Z 22001KT 5000 BR FEW003 SCT006 BKN080 01/01 Q1018
NOSIG=
METAR LZKZ 071700Z 21004KT 170V240 8000 OVC004 M02/M03 Q1017 NOSIG=
METAR LZPP 071700Z 15004KT 1100 R01/1800D BR OVC003 00/M00
Q1018=
METAR LZSL 071700Z 00000KT 4000 BR SCT008 OVC036 M02/M04 Q1016=
METAR LZTT 071700Z 26015KT 9999 -RA FEW011 BKN050 02/01 Q1012 NOSIG=
METAR LZZI 071700Z 30003KT 8000 OVC013 M00/M01 Q1016=

07.12.2019 - 16:30 UTC

METAR LZIB 071630Z 09002KT 4000 BR BKN004 OVC077 01/01 Q1018 NOSIG=
METAR LZKZ 071630Z 22003KT 8000 OVC006 M02/M03 Q1017 NOSIG=
METAR LZPP 071630Z 15004KT 1800 BR OVC003 00/M01 Q1017=
METAR LZSL 071630Z 00000KT 4000 BR FEW008 OVC052 M02/M04 Q1016=
METAR LZTT 071630Z 29008KT 260V320 9999 -RA SCT011 BKN030 02/01
Q1012 NOSIG=
METAR LZZI 071630Z VRB01KT 9000 OVC011 M00/M01 Q1016=

07.12.2019 - 17:00 UTC

METAR LZMC 071700Z 18002KT CAVOK 02/01 Q1017=
METAR LZPW 071700Z 20006KT 7000 OVC006 M03/M04 Q1016=

skok na menu ↑


skok na začiatok stránky ↑